Oronoco, Minnesota
Current Conditions -  °F | °C
As of 8:13 AM on Thursday 30 Oct 2014 (Local Time) from K9MN Reporting Station
Overcast Overcast  
Wind Chill: 34°   Ceiling: 7000
Heat Index: 38°   Visibility: 10mi
Dew Point: 33°   Wind: 6mph
Humidity: 80%   Direction: 130°SE
Pressure: 30.04"   Gusts: NA
Location:  44.17°N, 92.53°W
Report Text: K9MN 301313Z AUTO 13005KT 10SM OVC070 04/00 A3004 RMK AO1 T00350003
Loading
Personal Weather Stations






























Interactive Weather Map
Tropical Storm Tracking
New forecast layout! Learn more

10-Day Weather Forecast

Advertisements
Track Severe Weather on mobile